Main page
METAR-TAF:

METAR-TAF

Airports :

Shelbyville Municipal Airport

Shelbyville, Tennessee, United States

latitude: 35-33-34N, longitude: 086-26-33W, elevation: 800 ft

Current weather observation

The report was made 30 minutes ago, at 11:15 UTC
Wind 3 mph from the East/Southeast
Temperature 36°F
Humidity 75%
Pressure 30.25 in. Hg
Visibility: 10 miles
Overcast at a height of 11000 ft

METAR: KSYI 231115Z AUTO 11003KT 10SM OVC110 02/M02 A3025 RMK A01

Time: 05:45 (11:45 UTC)


TAF: missing

Weather observations and forecasts of more than 4000 airports (METAR and TAF reports).

The available stations are represented by yellow and red dots on the map.

Hover mouse over dot to see the name of the station.

Then click to see weather observations and forecasts.

To change the map : click on the green buttons with a black cross to zoom in, on the green button with a dash to zoom out, or on the green arrows for adjacent maps.


METAR-TAF: